Aeroporto :
LOGIN :

Iscrizione | Disclaimer

   EN    FR    IT 

 










Sommario :    VFR   VFR Marginale   IFR   IFR Intensivo   IFR Molto Intensivo
Visibilità : 
Base nubi : 
>= 8 km
>= 3000ft
5 / 8 km
1000 / 3000 ft
1500m / 5 km
500 / 1000 ft
800 / 1500m
200 / 500 ft
< 800m
< 200 ft
Simboli :   Temporali  Nebbia  Neve Forte  Precipitazioni Forti  Vento > 20 kt
SIGMETs :   Varie  Temporali  Ghiacco  Turbolenza  Onda orograficha  Ceneri Vulcaniche






- Altitudine del aeroporto : 1516 ft
- Codice IATA : AGB


EDMA - Augsburg

ULTIMO METAR :
  • 280750Z 22011KT 6000 SHRA FEW014 BKN026 BKN072 06/03 Q1001

METARs OBSOLETI :
  • 280720Z 19010KT 9999 SCT026 05/03 Q1001
  • 280650Z 18008KT 9999 FEW018 SCT024 05/03 Q1001
  • 280620Z 19007KT 9999 -RA FEW020 OVC024 05/04 Q1002
  • 280550Z AUTO 19007KT 9999 // FEW019/// OVC024/// 05/04 Q1002
  • 280520Z AUTO 22012KT 9999 // FEW019/// BKN032/// BKN110/// 06/04 Q1003
  • 280450Z AUTO 22013KT 9999 // FEW023/// SCT068/// BKN160/// 06/03 Q1003

TAF TAF EDMA
Valido dal 28 a 07 ore il 28 a 15 ore UTC


280622Z 2807/2815 20015KT 9999 FEW020 OVC030
BECMG 2808/2810 24020KT
BECMG 2810/2812 26025G35KT
TEMPO 2810/2815 4000 SHRASN SCT009 BKN014TCU
PROB30
TEMPO 2812/2815 26025G45KT 1200 TSGSSN BKN009CB



MetMap, La meteo Aeronautica in un colpo d'occhio ! - Copyright ORBIFLY Dicembre 2007 - Disclaimer

ORBIFLY MET'MAP TEAM :

Programmazione e sviluppo : Alexandra Zaïnal
Concezione : Baudouin d'Aumeries
Aiuto per la programmazione : Marc-Olivier Méhu
Supporto tecnico e logistico : Manuel Goepfert
Aiuto per la traduzione : Arnaldo La Scala

Contatto : metmap@orbifly.com




FONTI E CREDITI :

   NOAA